createdAt,value
2018-07-11T00:00:23.631Z,8.33
2018-07-11T00:02:52.698Z,6.87
2018-07-11T00:05:21.673Z,7.97
2018-07-11T00:07:50.631Z,8.37
2018-07-11T00:10:19.805Z,8.10
2018-07-11T00:12:48.850Z,10.40
2018-07-11T00:15:17.843Z,8.03
2018-07-11T00:17:46.802Z,8.50
2018-07-11T00:20:15.758Z,8.03
2018-07-11T00:22:44.839Z,8.60
2018-07-11T00:25:13.838Z,10.93
2018-07-11T00:27:43.817Z,10.97
2018-07-11T00:30:12.808Z,7.73
2018-07-11T00:32:41.673Z,9.63
2018-07-11T00:35:10.790Z,9.10
2018-07-11T00:37:40.443Z,10.03
2018-07-11T00:40:09.491Z,8.03
2018-07-11T00:42:38.415Z,12.00
2018-07-11T00:45:07.401Z,10.23
2018-07-11T00:47:36.396Z,12.30
2018-07-11T00:50:05.352Z,12.33
2018-07-11T00:52:34.374Z,12.77
2018-07-11T00:55:03.335Z,12.40
2018-07-11T00:57:32.962Z,11.93
2018-07-11T01:00:02.087Z,11.30
2018-07-11T01:02:31.066Z,11.80
2018-07-11T01:04:59.779Z,12.17
2018-07-11T01:07:28.389Z,11.37
2018-07-11T01:09:57.138Z,13.43
2018-07-11T01:12:25.885Z,11.83
2018-07-11T01:14:54.563Z,11.07
2018-07-11T01:17:28.532Z,11.57
2018-07-11T01:19:57.565Z,11.90
2018-07-11T01:22:26.199Z,11.90
2018-07-11T01:24:54.882Z,11.53
2018-07-11T01:27:23.559Z,11.70
2018-07-11T01:29:52.216Z,11.33
2018-07-11T01:32:20.752Z,11.03
2018-07-11T01:34:49.410Z,11.63
2018-07-11T01:37:18.163Z,11.17
2018-07-11T01:39:46.886Z,11.90
2018-07-11T01:42:15.556Z,9.57
2018-07-11T01:44:44.338Z,11.90
2018-07-11T01:47:13.014Z,11.47
2018-07-11T01:49:41.801Z,12.13
2018-07-11T01:52:21.795Z,10.70
2018-07-11T01:54:50.367Z,12.33
2018-07-11T01:57:19.174Z,11.10
2018-07-11T01:59:47.867Z,10.70
2018-07-11T02:02:16.653Z,11.40
2018-07-11T02:04:45.381Z,11.70
2018-07-11T02:07:14.097Z,11.10
2018-07-11T02:09:42.819Z,12.57
2018-07-11T02:12:11.543Z,14.27
2018-07-11T02:14:40.423Z,11.10
2018-07-11T02:17:09.205Z,11.73
2018-07-11T02:19:38.354Z,12.60
2018-07-11T02:22:07.238Z,11.00
2018-07-11T02:24:36.055Z,14.43
2018-07-11T02:27:04.664Z,13.00
2018-07-11T02:29:33.354Z,13.73
2018-07-11T02:32:02.109Z,14.90
2018-07-11T02:34:33.736Z,14.40
2018-07-11T02:37:03.059Z,13.60
2018-07-11T02:39:31.816Z,13.40
2018-07-11T02:42:00.742Z,15.60
2018-07-11T02:44:29.305Z,13.67
2018-07-11T02:47:03.245Z,14.10
2018-07-11T02:49:32.039Z,13.20
2018-07-11T02:52:00.719Z,13.37
2018-07-11T02:54:29.336Z,13.37
2018-07-11T02:56:58.136Z,12.87
2018-07-11T02:59:26.904Z,14.87
2018-07-11T03:01:55.767Z,12.70
2018-07-11T03:04:24.502Z,14.87
2018-07-11T03:06:53.170Z,15.53
2018-07-11T03:09:21.919Z,12.97
2018-07-11T03:11:50.482Z,14.00
2018-07-11T03:14:19.175Z,12.20
2018-07-11T03:16:48.171Z,14.37
2018-07-11T03:19:16.720Z,15.10
2018-07-11T03:21:45.522Z,14.60
2018-07-11T03:24:14.091Z,13.83
2018-07-11T03:26:42.798Z,14.13
2018-07-11T03:29:15.542Z,12.80
2018-07-11T03:31:44.199Z,14.00
2018-07-11T03:34:12.835Z,12.80
2018-07-11T03:36:41.563Z,14.20
2018-07-11T03:39:11.095Z,12.80
2018-07-11T03:41:39.789Z,13.73
2018-07-11T03:44:08.563Z,11.47
2018-07-11T03:46:37.203Z,14.63
2018-07-11T03:49:05.755Z,10.90
2018-07-11T03:51:34.357Z,13.20
2018-07-11T03:54:03.095Z,10.43
2018-07-11T03:56:31.675Z,11.20
2018-07-11T03:59:00.366Z,10.63
2018-07-11T04:01:29.047Z,10.70
2018-07-11T04:03:57.661Z,10.30
2018-07-11T04:06:26.268Z,13.00
2018-07-11T04:08:54.924Z,9.60
2018-07-11T04:11:23.678Z,10.93
2018-07-11T04:13:52.438Z,9.70
2018-07-11T04:16:21.133Z,11.27
2018-07-11T04:18:49.834Z,11.67
2018-07-11T04:21:18.530Z,11.13
2018-07-11T04:23:47.244Z,11.00
2018-07-11T04:26:15.857Z,11.07
2018-07-11T04:28:44.573Z,9.67
2018-07-11T04:31:13.155Z,9.60
2018-07-11T04:33:41.813Z,9.90
2018-07-11T04:36:10.472Z,9.63
2018-07-11T04:38:39.118Z,9.50
2018-07-11T04:41:07.886Z,9.43
2018-07-11T04:43:36.556Z,9.33
2018-07-11T04:46:05.994Z,10.43
2018-07-11T04:48:34.718Z,10.40
2018-07-11T04:51:03.663Z,10.73
2018-07-11T04:53:32.427Z,10.47
2018-07-11T04:56:04.603Z,9.00
2018-07-11T04:58:33.691Z,9.40
2018-07-11T05:01:02.597Z,9.23
2018-07-11T05:03:31.354Z,8.57
2018-07-11T05:05:59.945Z,8.80
2018-07-11T05:08:28.719Z,7.63
2018-07-11T05:10:58.543Z,8.93
2018-07-11T05:13:27.300Z,8.73
2018-07-11T05:15:55.931Z,9.87
2018-07-11T05:18:24.622Z,6.83
2018-07-11T05:20:53.336Z,7.97
2018-07-11T05:23:22.021Z,9.23
2018-07-11T05:25:50.853Z,8.43
2018-07-11T05:28:19.533Z,7.13
2018-07-11T05:30:48.244Z,8.23
2018-07-11T05:33:16.963Z,9.30
2018-07-11T05:35:45.698Z,10.00
2018-07-11T05:38:14.404Z,7.77
2018-07-11T05:40:43.094Z,7.70
2018-07-11T05:43:11.860Z,8.40
2018-07-11T05:45:40.504Z,7.47
2018-07-11T05:48:09.193Z,8.17
2018-07-11T05:50:37.894Z,9.40
2018-07-11T05:53:07.086Z,7.63
2018-07-11T05:55:35.850Z,8.07
2018-07-11T05:58:04.634Z,8.17
2018-07-11T06:00:34.446Z,9.10
2018-07-11T06:03:03.169Z,7.20
2018-07-11T06:05:31.919Z,7.70
2018-07-11T06:08:00.564Z,8.47
2018-07-11T06:10:29.242Z,6.87
2018-07-11T06:12:57.917Z,7.87
2018-07-11T06:15:26.704Z,7.80
2018-07-11T06:17:55.380Z,6.63
2018-07-11T06:20:24.148Z,7.60
2018-07-11T06:22:52.765Z,7.87
2018-07-11T06:25:21.458Z,6.73
2018-07-11T06:27:50.112Z,6.73
2018-07-11T06:30:18.701Z,7.23
2018-07-11T06:32:47.545Z,6.97
2018-07-11T06:35:16.124Z,7.60
2018-07-11T06:37:44.775Z,6.60
2018-07-11T06:40:13.475Z,6.93
2018-07-11T06:42:42.138Z,7.23
2018-07-11T06:45:10.936Z,6.37
2018-07-11T06:47:39.563Z,5.47
2018-07-11T06:50:09.280Z,6.70
2018-07-11T06:52:37.892Z,7.40
2018-07-11T06:55:06.681Z,7.90
2018-07-11T06:57:35.387Z,8.10
2018-07-11T07:00:04.142Z,6.13
2018-07-11T07:02:32.759Z,7.30
2018-07-11T07:05:02.439Z,6.60
2018-07-11T07:07:31.161Z,6.60
2018-07-11T07:09:59.862Z,7.70
2018-07-11T07:12:28.503Z,7.40
2018-07-11T07:14:57.229Z,6.60
2018-07-11T07:17:25.831Z,7.90
2018-07-11T07:19:54.431Z,7.57
2018-07-11T07:22:23.082Z,6.53
2018-07-11T07:24:51.708Z,7.83
2018-07-11T07:27:20.331Z,6.50
2018-07-11T07:29:49.081Z,7.00
2018-07-11T07:32:18.750Z,6.40
2018-07-11T07:34:47.349Z,7.93
2018-07-11T07:37:15.955Z,5.93
2018-07-11T07:39:44.803Z,8.07
2018-07-11T07:42:27.536Z,5.53
2018-07-11T07:44:56.258Z,6.03
2018-07-11T07:47:30.290Z,7.67
2018-07-11T07:49:58.992Z,6.17
2018-07-11T07:52:34.984Z,6.23
2018-07-11T07:55:03.634Z,5.90
2018-07-11T07:57:33.101Z,7.03
2018-07-11T08:00:01.696Z,6.17
2018-07-11T08:03:04.772Z,7.60
2018-07-11T08:05:33.429Z,5.50
2018-07-11T08:08:02.147Z,6.53
2018-07-11T08:10:30.852Z,5.53
2018-07-11T08:12:59.611Z,6.57
2018-07-11T08:15:28.271Z,6.00
2018-07-11T08:17:56.973Z,5.93
2018-07-11T08:20:25.547Z,6.73
2018-07-11T08:23:15.313Z,5.50
2018-07-11T08:25:56.438Z,7.07
2018-07-11T08:28:36.124Z,6.33
2018-07-11T08:32:05.180Z,5.40
2018-07-11T08:35:21.359Z,6.50
2018-07-11T08:38:01.916Z,6.90
2018-07-11T08:40:43.759Z,6.27
2018-07-11T08:43:32.310Z,5.40
2018-07-11T08:46:13.363Z,5.37
2018-07-11T08:48:53.128Z,7.33
2018-07-11T08:51:39.207Z,6.57
2018-07-11T08:56:26.149Z,5.43
2018-07-11T08:59:11.188Z,5.13
2018-07-11T09:01:53.091Z,4.50
2018-07-11T09:04:36.199Z,4.93
2018-07-11T09:07:32.592Z,6.03
2018-07-11T09:12:17.723Z,6.13
2018-07-11T09:15:29.016Z,5.30
2018-07-11T09:20:11.447Z,6.43
2018-07-11T09:22:54.367Z,6.23
2018-07-11T09:25:23.032Z,5.87
2018-07-11T09:27:52.010Z,5.17
2018-07-11T09:30:20.664Z,5.30
2018-07-11T09:32:49.738Z,6.43
2018-07-11T09:35:18.515Z,4.67
2018-07-11T09:37:47.134Z,6.33
2018-07-11T09:40:15.852Z,5.13
2018-07-11T09:42:44.651Z,4.40
2018-07-11T09:45:13.329Z,5.10
2018-07-11T09:47:42.028Z,4.50
2018-07-11T09:50:10.755Z,4.37
2018-07-11T09:52:47.928Z,4.73
2018-07-11T09:55:16.573Z,4.07
2018-07-11T09:57:45.362Z,5.33
2018-07-11T10:00:19.294Z,4.27
2018-07-11T10:02:55.728Z,6.47
2018-07-11T10:05:27.271Z,4.50
2018-07-11T10:07:56.072Z,4.50
2018-07-11T10:10:25.609Z,5.20
2018-07-11T10:13:02.042Z,3.77
2018-07-11T10:15:30.770Z,4.23
2018-07-11T10:17:59.445Z,4.87
2018-07-11T10:20:28.126Z,5.20
2018-07-11T10:23:13.805Z,5.10
2018-07-11T10:25:42.816Z,5.00
2018-07-11T10:28:17.859Z,5.83
2018-07-11T10:30:46.523Z,5.70
2018-07-11T10:33:15.325Z,6.90
2018-07-11T10:35:43.946Z,5.70
2018-07-11T10:38:16.424Z,10.30
2018-07-11T10:40:45.157Z,5.97
2018-07-11T10:43:14.269Z,7.67
2018-07-11T10:45:42.995Z,8.83
2018-07-11T10:48:12.845Z,7.60
2018-07-11T10:50:42.469Z,8.77
2018-07-11T10:53:12.219Z,7.70
2018-07-11T10:55:41.337Z,8.17
2018-07-11T10:58:10.188Z,8.90
2018-07-11T11:00:38.952Z,8.43
2018-07-11T11:03:13.500Z,7.40
2018-07-11T11:05:44.131Z,8.90
2018-07-11T11:08:12.795Z,9.20
2018-07-11T11:10:41.543Z,9.77
2018-07-11T11:13:12.471Z,9.83
2018-07-11T11:15:41.348Z,9.60
2018-07-11T11:18:10.897Z,9.17
2018-07-11T11:20:39.554Z,11.37
2018-07-11T11:23:10.497Z,9.07
2018-07-11T11:25:39.525Z,8.50
2018-07-11T11:28:08.100Z,9.10
2018-07-11T11:30:37.240Z,9.87
2018-07-11T11:33:15.538Z,11.93
2018-07-11T11:35:44.564Z,10.57
2018-07-11T11:38:13.553Z,9.50
2018-07-11T11:40:42.575Z,10.07
2018-07-11T11:43:18.469Z,10.93
2018-07-11T11:45:47.669Z,11.67
2018-07-11T11:48:18.199Z,10.80
2018-07-11T11:50:46.879Z,11.50
2018-07-11T11:53:15.685Z,11.87
2018-07-11T11:55:44.339Z,12.90
2018-07-11T11:58:13.777Z,13.60
2018-07-11T12:00:42.517Z,12.30
2018-07-11T12:03:12.356Z,11.33
2018-07-11T12:05:41.053Z,11.67
2018-07-11T12:08:09.665Z,12.27
2018-07-11T12:10:38.279Z,11.90
2018-07-11T12:13:09.056Z,12.63
2018-07-11T12:15:38.062Z,12.93
2018-07-11T12:18:06.685Z,12.73
2018-07-11T12:20:35.344Z,13.87
2018-07-11T12:23:43.707Z,11.93
2018-07-11T12:26:12.383Z,12.70
2018-07-11T12:28:41.114Z,13.43
2018-07-11T12:31:09.791Z,14.43
2018-07-11T12:33:55.037Z,15.37
2018-07-11T12:36:23.770Z,12.23
2018-07-11T12:38:55.182Z,12.80
2018-07-11T12:41:24.016Z,14.00
2018-07-11T12:44:01.105Z,13.90
2018-07-11T12:46:29.852Z,14.33
2018-07-11T12:49:02.604Z,12.90
2018-07-11T12:51:31.955Z,14.50
2018-07-11T12:54:08.063Z,15.40
2018-07-11T12:56:36.782Z,15.70
2018-07-11T12:59:05.499Z,14.57
2018-07-11T13:01:34.279Z,15.90
2018-07-11T13:04:15.737Z,15.60
2018-07-11T13:06:44.567Z,13.87
2018-07-11T13:09:13.331Z,15.10
2018-07-11T13:11:42.062Z,15.83
2018-07-11T13:14:24.135Z,16.10
2018-07-11T13:16:52.934Z,17.73
2018-07-11T13:19:21.548Z,16.57
2018-07-11T13:21:50.583Z,13.97
2018-07-11T13:24:32.116Z,15.07
2018-07-11T13:27:00.813Z,15.00
2018-07-11T13:29:29.438Z,14.10
2018-07-11T13:31:58.137Z,15.53
2018-07-11T13:34:34.649Z,13.70
2018-07-11T13:37:05.124Z,12.77
2018-07-11T13:39:34.363Z,14.10
2018-07-11T13:42:03.036Z,11.77
2018-07-11T13:44:44.913Z,12.70
2018-07-11T13:47:18.831Z,12.73
2018-07-11T13:49:47.563Z,14.07
2018-07-11T13:52:16.272Z,12.33
2018-07-11T13:54:52.388Z,13.03
2018-07-11T13:57:22.293Z,12.37
2018-07-11T13:59:51.309Z,12.03
2018-07-11T14:02:19.985Z,10.57
2018-07-11T14:04:49.750Z,11.00
2018-07-11T14:07:18.591Z,11.27
2018-07-11T14:09:47.266Z,11.20
2018-07-11T14:12:16.360Z,10.50
2018-07-11T14:14:57.904Z,10.03
2018-07-11T14:17:26.827Z,9.00
2018-07-11T14:19:55.540Z,9.73
2018-07-11T14:22:24.319Z,9.00
2018-07-11T14:24:55.120Z,9.17
2018-07-11T14:27:26.387Z,8.00
2018-07-11T14:29:55.135Z,10.10
2018-07-11T14:32:26.341Z,10.43
2018-07-11T14:34:58.724Z,10.00
2018-07-11T14:37:27.370Z,9.47
2018-07-11T14:39:56.093Z,9.30
2018-07-11T14:42:24.830Z,8.80
2018-07-11T14:44:53.523Z,10.80
2018-07-11T14:47:27.434Z,8.87
2018-07-11T14:49:56.111Z,10.50
2018-07-11T14:52:24.853Z,10.13
2018-07-11T14:55:08.026Z,9.20
2018-07-11T14:57:37.491Z,8.77
2018-07-11T15:00:06.536Z,9.30
2018-07-11T15:02:36.447Z,8.10
2018-07-11T15:05:06.327Z,10.67
2018-07-11T15:07:35.515Z,9.60
2018-07-11T15:10:04.456Z,9.30
2018-07-11T15:12:33.234Z,10.20
2018-07-11T15:15:03.974Z,8.50
2018-07-11T15:17:33.393Z,10.50
2018-07-11T15:20:02.305Z,8.47
2018-07-11T15:22:31.599Z,8.73
2018-07-11T15:25:00.549Z,8.40
2018-07-11T15:27:29.398Z,8.33
2018-07-11T15:29:58.905Z,8.00
2018-07-11T15:32:27.955Z,7.70
2018-07-11T15:34:56.767Z,9.13
2018-07-11T15:37:25.555Z,9.10
2018-07-11T15:39:54.771Z,8.67
2018-07-11T15:42:23.628Z,9.00
2018-07-11T15:44:53.670Z,8.97
2018-07-11T15:47:23.246Z,8.90
2018-07-11T15:49:54.019Z,10.60
2018-07-11T15:52:24.991Z,9.73
2018-07-11T15:54:57.059Z,9.47
2018-07-11T15:57:34.865Z,8.60
2018-07-11T16:00:06.989Z,8.23
2018-07-11T16:02:44.549Z,8.87
2018-07-11T16:05:21.405Z,7.60
2018-07-11T16:07:52.418Z,8.30
2018-07-11T16:10:30.248Z,8.13
2018-07-11T16:12:59.428Z,7.60
2018-07-11T16:15:28.225Z,6.93
2018-07-11T16:17:57.226Z,6.77
2018-07-11T16:20:25.955Z,7.20
2018-07-11T16:22:54.688Z,7.93
2018-07-11T16:25:23.393Z,7.00
2018-07-11T16:27:52.221Z,5.40
2018-07-11T16:30:20.983Z,6.63
2018-07-11T16:32:49.794Z,7.00
2018-07-11T16:35:18.678Z,6.97
2018-07-11T16:37:47.578Z,6.03
2018-07-11T16:40:16.671Z,8.10
2018-07-11T16:42:45.433Z,7.30
2018-07-11T16:45:14.294Z,7.27
2018-07-11T16:47:44.090Z,7.80
2018-07-11T16:50:13.470Z,7.33
2018-07-11T16:52:42.245Z,8.67
2018-07-11T16:55:11.700Z,7.00
2018-07-11T16:57:45.590Z,8.47
2018-07-11T17:00:14.948Z,9.03
2018-07-11T17:02:45.491Z,6.60
2018-07-11T17:05:20.736Z,7.70
2018-07-11T17:07:57.435Z,8.47
2018-07-11T17:10:27.429Z,8.40
2018-07-11T17:13:03.481Z,10.27
2018-07-11T17:15:33.374Z,9.10
2018-07-11T17:18:02.233Z,10.20
2018-07-11T17:20:31.053Z,9.50
2018-07-11T17:23:06.897Z,10.33
2018-07-11T17:25:42.755Z,10.13
2018-07-11T17:28:11.523Z,10.00
2018-07-11T17:30:43.773Z,13.20
2018-07-11T17:33:13.591Z,10.10
2018-07-11T17:35:57.034Z,11.97
2018-07-11T17:38:28.508Z,12.47
2018-07-11T17:40:58.081Z,13.37
2018-07-11T17:43:34.765Z,12.40
2018-07-11T17:46:04.323Z,13.40
2018-07-11T17:48:46.090Z,13.63
2018-07-11T17:51:26.254Z,14.43
2018-07-11T17:53:56.948Z,13.00
2018-07-11T17:56:39.218Z,12.50
2018-07-11T17:59:08.065Z,12.80
2018-07-11T18:01:44.641Z,12.90
2018-07-11T18:04:38.424Z,13.37
2018-07-11T18:07:12.098Z,13.00
2018-07-11T18:09:54.721Z,11.53
2018-07-11T18:12:25.726Z,12.90
2018-07-11T18:15:07.152Z,12.20
2018-07-11T18:18:16.255Z,12.57
2018-07-11T18:21:01.913Z,12.73
2018-07-11T18:23:41.561Z,12.20
2018-07-11T18:26:27.143Z,12.93
2018-07-11T18:29:04.287Z,11.47
2018-07-11T18:32:04.869Z,13.33
2018-07-11T18:34:57.783Z,13.37
2018-07-11T18:38:30.359Z,12.87
2018-07-11T18:41:08.974Z,12.27
2018-07-11T18:43:55.063Z,11.77
2018-07-11T18:46:51.176Z,10.23
2018-07-11T18:51:36.329Z,10.70
2018-07-11T18:54:13.243Z,10.90
2018-07-11T18:57:07.580Z,11.53
2018-07-11T18:59:47.385Z,10.30
2018-07-11T19:04:37.701Z,12.63
2018-07-11T19:07:17.446Z,10.80
2018-07-11T19:09:53.937Z,9.43
2018-07-11T19:12:36.634Z,11.73
2018-07-11T19:15:08.832Z,9.63
2018-07-11T19:20:28.516Z,9.90
2018-07-11T19:23:05.507Z,10.40
2018-07-11T19:25:54.250Z,9.90
2018-07-11T19:28:47.214Z,9.80
2018-07-11T19:31:25.182Z,10.13
2018-07-11T19:34:14.385Z,10.90
2018-07-11T19:36:53.966Z,10.40
2018-07-11T19:39:36.639Z,10.33
2018-07-11T19:42:23.829Z,9.13
2018-07-11T19:47:12.619Z,10.23
2018-07-11T19:49:51.638Z,9.67
2018-07-11T19:52:29.921Z,11.40
2018-07-11T19:55:10.287Z,9.13
2018-07-11T19:57:46.866Z,10.43
2018-07-11T20:00:15.675Z,10.43
2018-07-11T20:02:44.447Z,10.97
2018-07-11T20:05:13.110Z,9.60
2018-07-11T20:07:41.724Z,11.00
2018-07-11T20:10:18.424Z,10.37
2018-07-11T20:12:47.185Z,10.17
2018-07-11T20:15:16.016Z,11.57
2018-07-11T20:17:48.867Z,11.77
2018-07-11T20:20:17.794Z,11.00
2018-07-11T20:22:46.677Z,10.43
2018-07-11T20:25:15.293Z,11.83
2018-07-11T20:27:43.941Z,10.87
2018-07-11T20:30:12.853Z,13.07
2018-07-11T20:32:41.570Z,12.40
2018-07-11T20:35:10.437Z,10.80
2018-07-11T20:37:39.411Z,12.23
2018-07-11T20:40:08.055Z,11.97
2018-07-11T20:42:36.775Z,12.83
2018-07-11T20:45:05.535Z,10.90
2018-07-11T20:47:35.011Z,11.27
2018-07-11T20:50:03.624Z,11.23
2018-07-11T20:52:32.387Z,11.50
2018-07-11T20:55:01.080Z,11.73
2018-07-11T20:57:29.861Z,12.30
2018-07-11T21:00:09.626Z,12.27
2018-07-11T21:04:56.751Z,11.73
2018-07-11T21:10:38.660Z,10.80
2018-07-11T21:13:27.384Z,10.37
2018-07-11T21:17:38.732Z,12.70
2018-07-11T21:20:07.407Z,10.10
2018-07-11T21:22:36.141Z,10.87
2018-07-11T21:25:05.159Z,9.23
2018-07-11T21:27:34.798Z,8.93
2018-07-11T21:30:03.490Z,10.67
2018-07-11T21:32:32.140Z,13.57
2018-07-11T21:35:00.950Z,13.20
2018-07-11T21:37:29.598Z,13.90
2018-07-11T21:39:58.460Z,13.70
2018-07-11T21:42:27.222Z,12.47
2018-07-11T21:44:56.079Z,13.27
2018-07-11T21:47:24.745Z,12.97
2018-07-11T21:49:53.563Z,15.20
2018-07-11T21:52:22.332Z,12.50
2018-07-11T21:54:51.053Z,14.47
2018-07-11T21:57:19.764Z,14.20
2018-07-11T21:59:48.504Z,15.10
2018-07-11T22:02:17.181Z,12.40
2018-07-11T22:04:45.866Z,12.33
2018-07-11T22:07:14.668Z,13.87
2018-07-11T22:09:43.506Z,15.17
2018-07-11T22:12:12.163Z,13.37
2018-07-11T22:14:40.855Z,13.80
2018-07-11T22:17:20.773Z,13.63
2018-07-11T22:19:48.098Z,14.30
2018-07-11T22:22:15.428Z,14.90
2018-07-11T22:24:42.784Z,13.70
2018-07-11T22:27:10.142Z,15.87
2018-07-11T22:29:37.501Z,14.40
2018-07-11T22:32:04.819Z,16.93
2018-07-11T22:34:32.141Z,13.93
2018-07-11T22:36:59.480Z,13.00
2018-07-11T22:39:26.843Z,14.80
2018-07-11T22:41:54.166Z,16.13
2018-07-11T22:44:21.595Z,15.77
2018-07-11T22:46:48.944Z,14.40
2018-07-11T22:49:16.920Z,15.30
2018-07-11T22:51:44.274Z,13.40
2018-07-11T22:54:11.622Z,15.67
2018-07-11T22:56:38.947Z,15.53
2018-07-11T22:59:06.258Z,16.30
2018-07-11T23:01:33.597Z,16.17
2018-07-11T23:04:01.084Z,15.17
2018-07-11T23:06:28.447Z,15.43
2018-07-11T23:08:55.785Z,14.70
2018-07-11T23:11:23.142Z,15.90
2018-07-11T23:13:50.452Z,17.50
2018-07-11T23:16:17.871Z,19.43
2018-07-11T23:18:45.390Z,17.67
2018-07-11T23:21:12.783Z,16.77
2018-07-11T23:23:40.131Z,19.40
2018-07-11T23:26:07.473Z,16.90
2018-07-11T23:28:34.813Z,18.80
2018-07-11T23:31:02.187Z,18.40
2018-07-11T23:33:29.593Z,20.30
2018-07-11T23:35:56.936Z,22.43
2018-07-11T23:38:24.239Z,20.90
2018-07-11T23:40:51.598Z,15.97
2018-07-11T23:43:19.924Z,18.00
2018-07-11T23:45:47.313Z,18.00
2018-07-11T23:48:14.671Z,18.23
2018-07-11T23:50:42.018Z,17.07
2018-07-11T23:53:09.327Z,19.37
2018-07-11T23:55:36.746Z,18.33
2018-07-11T23:58:05.191Z,18.60
